Palmeira das Missoes, Brazil
Current Conditions -  °F | °C
As of 1:00 PM on Monday 24 Nov 2014 (Local Time) from SBCH Reporting Station
Scattered Clouds Scattered Clouds  
Wind Chill: 84°   Ceiling: Unl
Heat Index: 87°   Visibility: 6mi
Dew Point: 68°   Wind: 14mph
Humidity: 58%   Direction: 360°N
Pressure: 29.97"   Gusts: NA
Location:  27.9°S, 53.31°W
Report Text: SBCH 241500Z 36012KT 9999 SCT035 29/20 Q1015
Loading
Personal Weather Stations






























Interactive Weather Map New forecast layout! Learn more

10-Day Weather Forecast

Advertisements
Track Severe Weather on mobile